sensor_id;sensor_type;location;lat;lon;timestamp;pressure;altitude;pressure_sealevel;temperature;humidity
75895;BME280;64573;50.328;15.014;2024-02-14T00:02:05;99371.75;;;8.65;62.20
75895;BME280;64573;50.328;15.014;2024-02-14T00:04:31;99380.78;;;8.38;63.31
75895;BME280;64573;50.328;15.014;2024-02-14T00:06:56;99376.09;;;8.40;63.86
75895;BME280;64573;50.328;15.014;2024-02-14T00:09:22;99386.47;;;8.69;63.57
75895;BME280;64573;50.328;15.014;2024-02-14T00:11:47;99384.72;;;8.86;61.19
75895;BME280;64573;50.328;15.014;2024-02-14T00:14:12;99391.50;;;9.06;60.88
75895;BME280;64573;50.328;15.014;2024-02-14T00:16:39;99393.34;;;9.05;59.17
75895;BME280;64573;50.328;15.014;2024-02-14T00:19:04;99388.00;;;8.19;61.04
75895;BME280;64573;50.328;15.014;2024-02-14T00:21:30;99380.09;;;7.74;63.51
75895;BME280;64573;50.328;15.014;2024-02-14T00:23:56;99383.91;;;7.71;63.45
75895;BME280;64573;50.328;15.014;2024-02-14T00:26:23;99385.72;;;8.07;63.57
75895;BME280;64573;50.328;15.014;2024-02-14T00:28:49;99392.63;;;8.35;62.43
75895;BME280;64573;50.328;15.014;2024-02-14T00:31:15;99388.38;;;8.50;60.87
75895;BME280;64573;50.328;15.014;2024-02-14T00:33:40;99397.53;;;8.22;61.77
75895;BME280;64573;50.328;15.014;2024-02-14T00:36:06;99399.31;;;7.95;62.04
75895;BME280;64573;50.328;15.014;2024-02-14T00:38:32;99386.97;;;7.41;65.07
75895;BME280;64573;50.328;15.014;2024-02-14T00:40:57;99395.44;;;7.09;66.27
75895;BME280;64573;50.328;15.014;2024-02-14T00:43:23;99390.63;;;7.76;65.36
75895;BME280;64573;50.328;15.014;2024-02-14T00:45:48;99386.88;;;8.04;63.46
75895;BME280;64573;50.328;15.014;2024-02-14T00:48:14;99392.00;;;8.23;61.59
75895;BME280;64573;50.328;15.014;2024-02-14T00:50:39;99393.91;;;8.05;62.95
75895;BME280;64573;50.328;15.014;2024-02-14T00:53:04;99388.19;;;8.44;61.50
75895;BME280;64573;50.328;15.014;2024-02-14T00:55:30;99393.22;;;8.29;61.34
75895;BME280;64573;50.328;15.014;2024-02-14T00:57:55;99402.59;;;7.89;63.71
75895;BME280;64573;50.328;15.014;2024-02-14T01:00:20;99397.56;;;8.04;62.62
75895;BME280;64573;50.328;15.014;2024-02-14T01:02:46;99401.34;;;8.01;62.59
75895;BME280;64573;50.328;15.014;2024-02-14T01:05:11;99398.25;;;8.06;61.95
75895;BME280;64573;50.328;15.014;2024-02-14T01:07:36;99401.75;;;8.33;61.79
75895;BME280;64573;50.328;15.014;2024-02-14T01:10:02;99397.91;;;8.09;61.28
75895;BME280;64573;50.328;15.014;2024-02-14T01:12:28;99393.84;;;7.61;63.64
75895;BME280;64573;50.328;15.014;2024-02-14T01:14:57;99399.69;;;7.47;65.65
75895;BME280;64573;50.328;15.014;2024-02-14T01:17:22;99395.72;;;8.05;64.89
75895;BME280;64573;50.328;15.014;2024-02-14T01:19:47;99394.16;;;8.38;63.53
75895;BME280;64573;50.328;15.014;2024-02-14T01:22:14;99399.53;;;8.72;62.01
75895;BME280;64573;50.328;15.014;2024-02-14T01:24:44;99391.78;;;8.35;62.94
75895;BME280;64573;50.328;15.014;2024-02-14T01:27:10;99385.88;;;8.31;63.94
75895;BME280;64573;50.328;15.014;2024-02-14T01:29:35;99379.03;;;7.85;65.67
75895;BME280;64573;50.328;15.014;2024-02-14T01:32:01;99383.56;;;8.10;65.81
75895;BME280;64573;50.328;15.014;2024-02-14T01:34:26;99387.88;;;8.29;64.58
75895;BME280;64573;50.328;15.014;2024-02-14T01:36:53;99376.75;;;8.16;65.32
75895;BME280;64573;50.328;15.014;2024-02-14T01:39:19;99369.13;;;8.21;65.17
75895;BME280;64573;50.328;15.014;2024-02-14T01:41:45;99370.63;;;8.75;64.39
75895;BME280;64573;50.328;15.014;2024-02-14T01:44:13;99371.94;;;9.05;63.27
75895;BME280;64573;50.328;15.014;2024-02-14T01:46:39;99386.19;;;9.14;62.14
75895;BME280;64573;50.328;15.014;2024-02-14T01:49:04;99380.59;;;9.42;62.35
75895;BME280;64573;50.328;15.014;2024-02-14T01:51:31;99381.72;;;9.39;61.79
75895;BME280;64573;50.328;15.014;2024-02-14T01:53:57;99387.72;;;9.25;61.72
75895;BME280;64573;50.328;15.014;2024-02-14T02:01:24;99391.16;;;9.67;62.21
75895;BME280;64573;50.328;15.014;2024-02-14T02:03:49;99378.25;;;9.63;61.73
75895;BME280;64573;50.328;15.014;2024-02-14T02:06:15;99379.13;;;9.72;62.03
75895;BME280;64573;50.328;15.014;2024-02-14T02:11:07;99372.59;;;9.99;60.67
75895;BME280;64573;50.328;15.014;2024-02-14T02:13:32;99380.47;;;10.08;60.19
75895;BME280;64573;50.328;15.014;2024-02-14T02:15:57;99386.00;;;10.15;60.15
75895;BME280;64573;50.328;15.014;2024-02-14T02:18:23;99374.41;;;9.57;60.29
75895;BME280;64573;50.328;15.014;2024-02-14T02:23:17;99384.56;;;8.87;64.61
75895;BME280;64573;50.328;15.014;2024-02-14T02:25:43;99388.25;;;9.28;63.85
75895;BME280;64573;50.328;15.014;2024-02-14T02:28:08;99381.38;;;7.34;67.88
75895;BME280;64573;50.328;15.014;2024-02-14T02:30:35;99384.97;;;7.43;70.75
75895;BME280;64573;50.328;15.014;2024-02-14T02:33:01;99385.72;;;7.17;73.41
75895;BME280;64573;50.328;15.014;2024-02-14T02:35:27;99379.78;;;8.39;69.84
75895;BME280;64573;50.328;15.014;2024-02-14T02:37:53;99379.94;;;8.63;67.58
75895;BME280;64573;50.328;15.014;2024-02-14T02:40:19;99374.13;;;8.76;66.49
75895;BME280;64573;50.328;15.014;2024-02-14T02:42:46;99377.47;;;9.12;65.01
75895;BME280;64573;50.328;15.014;2024-02-14T02:45:12;99377.91;;;9.50;63.92
75895;BME280;64573;50.328;15.014;2024-02-14T02:47:37;99370.06;;;9.56;62.66
75895;BME280;64573;50.328;15.014;2024-02-14T02:52:31;99358.34;;;9.57;61.97
75895;BME280;64573;50.328;15.014;2024-02-14T02:57:32;99355.69;;;8.99;63.01
75895;BME280;64573;50.328;15.014;2024-02-14T02:59:58;99358.28;;;9.25;64.56
75895;BME280;64573;50.328;15.014;2024-02-14T03:02:24;99358.84;;;9.69;63.29
75895;BME280;64573;50.328;15.014;2024-02-14T03:04:51;99354.50;;;9.68;64.06
75895;BME280;64573;50.328;15.014;2024-02-14T03:07:17;99368.41;;;9.72;63.72
75895;BME280;64573;50.328;15.014;2024-02-14T03:09:43;99366.06;;;9.93;63.12
75895;BME280;64573;50.328;15.014;2024-02-14T03:12:09;99372.25;;;10.02;62.86
75895;BME280;64573;50.328;15.014;2024-02-14T03:17:03;99365.03;;;9.61;62.84
75895;BME280;64573;50.328;15.014;2024-02-14T03:19:28;99378.94;;;10.14;62.05
75895;BME280;64573;50.328;15.014;2024-02-14T03:21:55;99379.09;;;10.20;59.74
75895;BME280;64573;50.328;15.014;2024-02-14T03:24:21;99381.06;;;9.37;61.52
75895;BME280;64573;50.328;15.014;2024-02-14T03:26:46;99379.78;;;8.39;65.41
75895;BME280;64573;50.328;15.014;2024-02-14T03:29:12;99385.34;;;8.71;67.12
75895;BME280;64573;50.328;15.014;2024-02-14T03:31:37;99384.31;;;9.06;67.10
75895;BME280;64573;50.328;15.014;2024-02-14T03:34:03;99386.25;;;9.38;64.75
75895;BME280;64573;50.328;15.014;2024-02-14T03:36:28;99384.28;;;9.57;63.31
75895;BME280;64573;50.328;15.014;2024-02-14T03:38:55;99392.00;;;9.76;63.40
75895;BME280;64573;50.328;15.014;2024-02-14T03:41:21;99398.19;;;9.77;62.17
75895;BME280;64573;50.328;15.014;2024-02-14T03:43:46;99394.19;;;9.89;62.50
75895;BME280;64573;50.328;15.014;2024-02-14T03:46:11;99394.88;;;10.07;61.63
75895;BME280;64573;50.328;15.014;2024-02-14T03:48:38;99385.66;;;10.10;61.83
75895;BME280;64573;50.328;15.014;2024-02-14T03:51:03;99391.84;;;10.02;62.02
75895;BME280;64573;50.328;15.014;2024-02-14T03:53:29;99392.16;;;9.83;62.33
75895;BME280;64573;50.328;15.014;2024-02-14T03:55:54;99393.91;;;9.33;63.60
75895;BME280;64573;50.328;15.014;2024-02-14T03:58:19;99399.66;;;8.96;65.31
75895;BME280;64573;50.328;15.014;2024-02-14T04:00:49;99394.91;;;8.30;68.63
75895;BME280;64573;50.328;15.014;2024-02-14T04:03:16;99395.53;;;9.10;67.41
75895;BME280;64573;50.328;15.014;2024-02-14T04:05:41;99390.63;;;9.48;66.28
75895;BME280;64573;50.328;15.014;2024-02-14T04:08:07;99390.16;;;9.85;64.28
75895;BME280;64573;50.328;15.014;2024-02-14T04:10:37;99394.84;;;9.75;63.58
75895;BME280;64573;50.328;15.014;2024-02-14T04:13:04;99391.69;;;9.95;63.56
75895;BME280;64573;50.328;15.014;2024-02-14T04:15:32;99382.81;;;10.03;63.20
75895;BME280;64573;50.328;15.014;2024-02-14T04:17:58;99380.13;;;9.79;63.79
75895;BME280;64573;50.328;15.014;2024-02-14T04:20:25;99372.41;;;9.92;62.62
75895;BME280;64573;50.328;15.014;2024-02-14T04:22:50;99377.78;;;9.92;63.74
75895;BME280;64573;50.328;15.014;2024-02-14T04:25:15;99376.78;;;10.09;63.39
75895;BME280;64573;50.328;15.014;2024-02-14T04:27:41;99374.94;;;10.26;62.59
75895;BME280;64573;50.328;15.014;2024-02-14T04:30:06;99376.09;;;9.91;63.32
75895;BME280;64573;50.328;15.014;2024-02-14T04:32:32;99371.19;;;9.29;66.77
75895;BME280;64573;50.328;15.014;2024-02-14T04:34:58;99372.41;;;9.67;65.19
75895;BME280;64573;50.328;15.014;2024-02-14T04:37:24;99367.41;;;9.81;64.04
75895;BME280;64573;50.328;15.014;2024-02-14T04:39:49;99362.38;;;10.02;63.82
75895;BME280;64573;50.328;15.014;2024-02-14T04:42:15;99366.56;;;10.37;63.09
75895;BME280;64573;50.328;15.014;2024-02-14T04:44:40;99356.00;;;10.19;62.38
75895;BME280;64573;50.328;15.014;2024-02-14T04:47:05;99352.63;;;10.42;62.04
75895;BME280;64573;50.328;15.014;2024-02-14T04:49:31;99364.22;;;10.34;62.38
75895;BME280;64573;50.328;15.014;2024-02-14T04:51:57;99355.66;;;10.39;62.67
75895;BME280;64573;50.328;15.014;2024-02-14T04:54:23;99362.38;;;10.43;62.10
75895;BME280;64573;50.328;15.014;2024-02-14T04:56:48;99357.81;;;9.54;64.32
75895;BME280;64573;50.328;15.014;2024-02-14T04:59:14;99356.50;;;9.42;65.44
75895;BME280;64573;50.328;15.014;2024-02-14T05:01:39;99359.72;;;9.78;65.05
75895;BME280;64573;50.328;15.014;2024-02-14T05:04:05;99363.06;;;10.29;63.77
75895;BME280;64573;50.328;15.014;2024-02-14T05:06:31;99365.56;;;10.22;62.88
75895;BME280;64573;50.328;15.014;2024-02-14T05:08:57;99368.00;;;10.56;62.19
75895;BME280;64573;50.328;15.014;2024-02-14T05:11:22;99367.88;;;10.49;61.95
75895;BME280;64573;50.328;15.014;2024-02-14T05:13:47;99366.88;;;10.51;61.67
75895;BME280;64573;50.328;15.014;2024-02-14T05:16:17;99365.03;;;10.51;62.25
75895;BME280;64573;50.328;15.014;2024-02-14T05:18:42;99368.41;;;10.12;62.31
75895;BME280;64573;50.328;15.014;2024-02-14T05:26:08;99366.03;;;10.42;62.00
75895;BME280;64573;50.328;15.014;2024-02-14T05:28:34;99367.91;;;10.25;62.00
75895;BME280;64573;50.328;15.014;2024-02-14T05:31:00;99375.44;;;9.97;62.97
75895;BME280;64573;50.328;15.014;2024-02-14T05:33:25;99375.25;;;9.90;62.80
75895;BME280;64573;50.328;15.014;2024-02-14T05:35:52;99375.78;;;10.10;62.95
75895;BME280;64573;50.328;15.014;2024-02-14T05:38:17;99362.88;;;10.22;62.31
75895;BME280;64573;50.328;15.014;2024-02-14T05:40:45;99373.94;;;9.78;62.90
75895;BME280;64573;50.328;15.014;2024-02-14T05:43:11;99377.34;;;9.22;65.47
75895;BME280;64573;50.328;15.014;2024-02-14T05:45:36;99372.94;;;10.04;64.16
75895;BME280;64573;50.328;15.014;2024-02-14T05:48:02;99378.84;;;9.24;65.14
75895;BME280;64573;50.328;15.014;2024-02-14T05:50:27;99371.94;;;9.88;63.53
75895;BME280;64573;50.328;15.014;2024-02-14T05:52:53;99373.91;;;9.70;64.05
75895;BME280;64573;50.328;15.014;2024-02-14T05:55:18;99378.81;;;10.24;62.26
75895;BME280;64573;50.328;15.014;2024-02-14T05:57:43;99379.47;;;10.01;62.17
75895;BME280;64573;50.328;15.014;2024-02-14T06:00:09;99372.03;;;9.46;62.95
75895;BME280;64573;50.328;15.014;2024-02-14T06:02:35;99366.75;;;9.71;63.52
75895;BME280;64573;50.328;15.014;2024-02-14T06:05:01;99376.13;;;9.08;66.17
75895;BME280;64573;50.328;15.014;2024-02-14T06:07:26;99377.03;;;8.48;69.06
75895;BME280;64573;50.328;15.014;2024-02-14T06:09:52;99377.22;;;8.55;70.92
75895;BME280;64573;50.328;15.014;2024-02-14T06:12:17;99388.78;;;8.98;69.16
75895;BME280;64573;50.328;15.014;2024-02-14T06:14:43;99393.81;;;9.59;67.60
75895;BME280;64573;50.328;15.014;2024-02-14T06:17:08;99398.53;;;9.82;65.56
75895;BME280;64573;50.328;15.014;2024-02-14T06:19:33;99400.22;;;9.99;65.81
75895;BME280;64573;50.328;15.014;2024-02-14T06:22:00;99395.34;;;9.70;66.25
75895;BME280;64573;50.328;15.014;2024-02-14T06:24:26;99398.56;;;10.31;64.31
75895;BME280;64573;50.328;15.014;2024-02-14T06:26:51;99398.72;;;10.45;62.96
75895;BME280;64573;50.328;15.014;2024-02-14T06:29:16;99391.16;;;9.59;64.83
75895;BME280;64573;50.328;15.014;2024-02-14T06:31:42;99392.78;;;8.34;68.26
75895;BME280;64573;50.328;15.014;2024-02-14T06:36:36;99388.97;;;8.36;72.46
75895;BME280;64573;50.328;15.014;2024-02-14T06:39:01;99397.34;;;8.41;74.66
75895;BME280;64573;50.328;15.014;2024-02-14T06:41:27;99397.06;;;8.52;73.49
75895;BME280;64573;50.328;15.014;2024-02-14T06:43:52;99403.06;;;8.28;74.78
75895;BME280;64573;50.328;15.014;2024-02-14T06:46:17;99407.16;;;8.59;73.21
75895;BME280;64573;50.328;15.014;2024-02-14T06:48:43;99404.47;;;8.15;73.31
75895;BME280;64573;50.328;15.014;2024-02-14T06:51:09;99399.84;;;7.99;77.08
75895;BME280;64573;50.328;15.014;2024-02-14T06:53:34;99394.66;;;7.80;77.77
75895;BME280;64573;50.328;15.014;2024-02-14T06:56:00;99404.38;;;8.24;76.58
75895;BME280;64573;50.328;15.014;2024-02-14T06:58:26;99402.63;;;8.33;73.93
75895;BME280;64573;50.328;15.014;2024-02-14T07:00:51;99400.78;;;8.60;73.70
75895;BME280;64573;50.328;15.014;2024-02-14T07:03:17;99406.16;;;8.60;74.85
75895;BME280;64573;50.328;15.014;2024-02-14T07:05:42;99406.97;;;8.60;74.45
75895;BME280;64573;50.328;15.014;2024-02-14T07:10:37;99405.66;;;9.40;70.68
75895;BME280;64573;50.328;15.014;2024-02-14T07:13:03;99406.22;;;9.60;69.56
75895;BME280;64573;50.328;15.014;2024-02-14T07:15:28;99412.59;;;9.76;68.67
75895;BME280;64573;50.328;15.014;2024-02-14T07:17:57;99411.25;;;9.72;66.60
75895;BME280;64573;50.328;15.014;2024-02-14T07:20:23;99404.22;;;9.71;68.13
75895;BME280;64573;50.328;15.014;2024-02-14T07:22:51;99410.22;;;9.56;68.58
75895;BME280;64573;50.328;15.014;2024-02-14T07:25:19;99404.41;;;10.02;65.56
75895;BME280;64573;50.328;15.014;2024-02-14T07:27:44;99401.03;;;10.73;64.22
75895;BME280;64573;50.328;15.014;2024-02-14T07:30:11;99399.41;;;10.15;65.86
75895;BME280;64573;50.328;15.014;2024-02-14T07:32:37;99403.59;;;10.01;67.31
75895;BME280;64573;50.328;15.014;2024-02-14T07:35:03;99405.06;;;9.79;67.58
75895;BME280;64573;50.328;15.014;2024-02-14T07:37:30;99404.38;;;9.77;68.90
75895;BME280;64573;50.328;15.014;2024-02-14T07:39:55;99413.13;;;10.28;67.81
75895;BME280;64573;50.328;15.014;2024-02-14T07:42:21;99407.41;;;9.82;68.08
75895;BME280;64573;50.328;15.014;2024-02-14T07:44:46;99407.94;;;9.78;68.13
75895;BME280;64573;50.328;15.014;2024-02-14T07:47:11;99411.06;;;9.57;70.83
75895;BME280;64573;50.328;15.014;2024-02-14T07:49:37;99414.47;;;10.08;68.17
75895;BME280;64573;50.328;15.014;2024-02-14T07:52:03;99396.38;;;10.02;68.78
75895;BME280;64573;50.328;15.014;2024-02-14T07:56:53;99412.31;;;10.36;67.52
75895;BME280;64573;50.328;15.014;2024-02-14T07:59:18;99401.38;;;10.13;66.86
75895;BME280;64573;50.328;15.014;2024-02-14T08:01:45;99405.97;;;10.29;67.76
75895;BME280;64573;50.328;15.014;2024-02-14T08:04:11;99409.59;;;10.19;68.09
75895;BME280;64573;50.328;15.014;2024-02-14T08:06:36;99402.59;;;10.27;67.63
75895;BME280;64573;50.328;15.014;2024-02-14T08:09:01;99404.63;;;10.96;66.31
75895;BME280;64573;50.328;15.014;2024-02-14T08:11:31;99406.09;;;10.43;66.81
75895;BME280;64573;50.328;15.014;2024-02-14T08:13:57;99405.66;;;11.26;63.90
75895;BME280;64573;50.328;15.014;2024-02-14T08:16:23;99411.34;;;11.31;62.05
75895;BME280;64573;50.328;15.014;2024-02-14T08:21:16;99404.22;;;13.20;56.89
75895;BME280;64573;50.328;15.014;2024-02-14T08:23:41;99398.22;;;14.68;54.08
75895;BME280;64573;50.328;15.014;2024-02-14T08:26:08;99397.31;;;14.89;51.98
75895;BME280;64573;50.328;15.014;2024-02-14T08:28:38;99396.00;;;13.79;54.16
75895;BME280;64573;50.328;15.014;2024-02-14T08:31:10;99396.00;;;13.79;53.94
75895;BME280;64573;50.328;15.014;2024-02-14T08:33:36;99400.75;;;15.11;51.11
75895;BME280;64573;50.328;15.014;2024-02-14T08:36:03;99399.59;;;15.81;48.74
75895;BME280;64573;50.328;15.014;2024-02-14T08:38:28;99395.66;;;15.90;48.17
75895;BME280;64573;50.328;15.014;2024-02-14T08:40:53;99395.81;;;14.80;49.86
75895;BME280;64573;50.328;15.014;2024-02-14T08:43:19;99396.66;;;14.52;49.79
75895;BME280;64573;50.328;15.014;2024-02-14T08:45:44;99396.91;;;15.33;48.63
75895;BME280;64573;50.328;15.014;2024-02-14T08:48:09;99394.81;;;13.89;51.60
75895;BME280;64573;50.328;15.014;2024-02-14T08:50:35;99393.53;;;13.27;53.73
75895;BME280;64573;50.328;15.014;2024-02-14T08:53:00;99393.16;;;14.86;51.27
75895;BME280;64573;50.328;15.014;2024-02-14T08:55:26;99392.28;;;15.14;50.02
75895;BME280;64573;50.328;15.014;2024-02-14T08:57:51;99380.06;;;16.72;47.67
75895;BME280;64573;50.328;15.014;2024-02-14T09:00:17;99386.03;;;17.58;44.82
75895;BME280;64573;50.328;15.014;2024-02-14T09:02:45;99386.50;;;16.64;45.57
75895;BME280;64573;50.328;15.014;2024-02-14T09:05:12;99384.03;;;15.96;46.17
75895;BME280;64573;50.328;15.014;2024-02-14T09:07:38;99365.88;;;15.70;47.29
75895;BME280;64573;50.328;15.014;2024-02-14T09:10:03;99373.03;;;14.12;49.94
75895;BME280;64573;50.328;15.014;2024-02-14T09:12:30;99370.88;;;15.74;47.91
75895;BME280;64573;50.328;15.014;2024-02-14T09:14:57;99371.75;;;15.94;48.90
75895;BME280;64573;50.328;15.014;2024-02-14T09:17:22;99371.09;;;15.24;49.25
75895;BME280;64573;50.328;15.014;2024-02-14T09:19:47;99373.41;;;15.95;47.93
75895;BME280;64573;50.328;15.014;2024-02-14T09:22:13;99367.75;;;17.47;43.86
75895;BME280;64573;50.328;15.014;2024-02-14T09:24:43;99367.16;;;16.67;45.81
75895;BME280;64573;50.328;15.014;2024-02-14T09:27:09;99363.03;;;16.25;47.14
75895;BME280;64573;50.328;15.014;2024-02-14T09:29:34;99366.94;;;16.62;46.61
75895;BME280;64573;50.328;15.014;2024-02-14T09:32:02;99372.88;;;15.52;47.29
75895;BME280;64573;50.328;15.014;2024-02-14T09:34:28;99376.56;;;14.12;50.38
75895;BME280;64573;50.328;15.014;2024-02-14T09:36:53;99384.44;;;14.07;50.71
75895;BME280;64573;50.328;15.014;2024-02-14T09:39:21;99380.28;;;15.30;50.25
75895;BME280;64573;50.328;15.014;2024-02-14T09:41:51;99379.69;;;14.93;49.91
75895;BME280;64573;50.328;15.014;2024-02-14T09:44:20;99378.63;;;16.43;47.92
75895;BME280;64573;50.328;15.014;2024-02-14T09:46:47;99370.47;;;16.89;45.87
75895;BME280;64573;50.328;15.014;2024-02-14T09:49:14;99380.28;;;17.42;44.91
75895;BME280;64573;50.328;15.014;2024-02-14T09:51:45;99379.91;;;17.31;44.54
75895;BME280;64573;50.328;15.014;2024-02-14T09:54:12;99382.16;;;15.29;47.48
75895;BME280;64573;50.328;15.014;2024-02-14T09:56:37;99380.69;;;16.21;47.52
75895;BME280;64573;50.328;15.014;2024-02-14T09:59:03;99377.38;;;16.59;46.83
75895;BME280;64573;50.328;15.014;2024-02-14T10:01:28;99376.25;;;17.06;45.63
75895;BME280;64573;50.328;15.014;2024-02-14T10:03:54;99372.16;;;17.42;45.20
75895;BME280;64573;50.328;15.014;2024-02-14T10:06:20;99372.88;;;17.17;44.70
75895;BME280;64573;50.328;15.014;2024-02-14T10:08:50;99375.28;;;16.21;46.05
75895;BME280;64573;50.328;15.014;2024-02-14T10:11:17;99377.16;;;15.33;49.54
75895;BME280;64573;50.328;15.014;2024-02-14T10:13:45;99371.75;;;16.34;47.46
75895;BME280;64573;50.328;15.014;2024-02-14T10:16:12;99370.69;;;16.54;47.73
75895;BME280;64573;50.328;15.014;2024-02-14T10:18:38;99364.25;;;16.42;47.12
75895;BME280;64573;50.328;15.014;2024-02-14T10:21:04;99364.28;;;16.09;47.38
75895;BME280;64573;50.328;15.014;2024-02-14T10:23:29;99358.59;;;16.57;47.87
75895;BME280;64573;50.328;15.014;2024-02-14T10:25:56;99356.75;;;15.91;49.20
75895;BME280;64573;50.328;15.014;2024-02-14T10:28:22;99356.69;;;14.41;50.99
75895;BME280;64573;50.328;15.014;2024-02-14T10:30:49;99353.72;;;14.92;51.85
75895;BME280;64573;50.328;15.014;2024-02-14T10:33:17;99352.53;;;14.67;51.63
75895;BME280;64573;50.328;15.014;2024-02-14T10:35:44;99349.16;;;14.93;52.06
75895;BME280;64573;50.328;15.014;2024-02-14T10:38:11;99347.81;;;15.91;51.47
75895;BME280;64573;50.328;15.014;2024-02-14T10:40:37;99341.75;;;15.76;51.18
75895;BME280;64573;50.328;15.014;2024-02-14T10:43:08;99344.25;;;16.43;49.70
75895;BME280;64573;50.328;15.014;2024-02-14T10:45:37;99346.34;;;15.88;50.45
75895;BME280;64573;50.328;15.014;2024-02-14T10:48:11;99334.13;;;15.25;51.31
75895;BME280;64573;50.328;15.014;2024-02-14T10:50:40;99331.34;;;15.11;52.60
75895;BME280;64573;50.328;15.014;2024-02-14T10:53:06;99336.69;;;14.98;52.13
75895;BME280;64573;50.328;15.014;2024-02-14T10:55:40;99334.19;;;16.90;49.79
75895;BME280;64573;50.328;15.014;2024-02-14T10:58:08;99330.66;;;17.41;47.36
75895;BME280;64573;50.328;15.014;2024-02-14T11:00:35;99321.56;;;17.60;47.62
75895;BME280;64573;50.328;15.014;2024-02-14T11:03:01;99333.22;;;17.68;47.37
75895;BME280;64573;50.328;15.014;2024-02-14T11:05:27;99334.59;;;18.08;46.08
75895;BME280;64573;50.328;15.014;2024-02-14T11:07:52;99332.75;;;17.77;46.06
75895;BME280;64573;50.328;15.014;2024-02-14T11:10:19;99336.66;;;16.98;47.97
75895;BME280;64573;50.328;15.014;2024-02-14T11:12:46;99332.94;;;16.86;49.31
75895;BME280;64573;50.328;15.014;2024-02-14T11:15:17;99324.09;;;16.26;50.10
75895;BME280;64573;50.328;15.014;2024-02-14T11:17:43;99317.50;;;16.93;49.26
75895;BME280;64573;50.328;15.014;2024-02-14T11:20:31;99312.44;;;16.25;50.88
75895;BME280;64573;50.328;15.014;2024-02-14T11:23:00;99321.56;;;17.22;48.55
75895;BME280;64573;50.328;15.014;2024-02-14T11:25:29;99322.56;;;17.66;48.00
75895;BME280;64573;50.328;15.014;2024-02-14T11:27:59;99315.72;;;18.20;46.96
75895;BME280;64573;50.328;15.014;2024-02-14T11:30:33;99310.34;;;17.50;47.34
75895;BME280;64573;50.328;15.014;2024-02-14T11:33:22;99316.56;;;17.57;47.55
75895;BME280;64573;50.328;15.014;2024-02-14T11:35:51;99314.50;;;17.91;47.41
75895;BME280;64573;50.328;15.014;2024-02-14T11:38:22;99304.19;;;18.00;47.34
75895;BME280;64573;50.328;15.014;2024-02-14T11:40:48;99305.53;;;18.15;46.44
75895;BME280;64573;50.328;15.014;2024-02-14T11:43:16;99308.84;;;18.61;46.05
75895;BME280;64573;50.328;15.014;2024-02-14T11:45:43;99298.75;;;18.25;45.83
75895;BME280;64573;50.328;15.014;2024-02-14T11:48:09;99295.00;;;18.69;45.80
75895;BME280;64573;50.328;15.014;2024-02-14T11:50:36;99292.41;;;18.56;45.61
75895;BME280;64573;50.328;15.014;2024-02-14T11:53:01;99291.38;;;18.75;44.79
75895;BME280;64573;50.328;15.014;2024-02-14T11:55:28;99289.47;;;18.94;44.40
75895;BME280;64573;50.328;15.014;2024-02-14T11:57:54;99293.88;;;19.25;44.10
75895;BME280;64573;50.328;15.014;2024-02-14T12:00:20;99289.41;;;20.02;43.18
75895;BME280;64573;50.328;15.014;2024-02-14T12:02:45;99284.94;;;19.06;43.62
75895;BME280;64573;50.328;15.014;2024-02-14T12:05:11;99290.06;;;18.96;43.96
75895;BME280;64573;50.328;15.014;2024-02-14T12:07:37;99294.09;;;19.72;42.71
75895;BME280;64573;50.328;15.014;2024-02-14T12:10:03;99292.59;;;20.11;42.00
75895;BME280;64573;50.328;15.014;2024-02-14T12:12:28;99290.13;;;19.56;42.35
75895;BME280;64573;50.328;15.014;2024-02-14T12:14:53;99286.81;;;20.07;41.93
75895;BME280;64573;50.328;15.014;2024-02-14T12:17:19;99284.47;;;19.69;42.38
75895;BME280;64573;50.328;15.014;2024-02-14T12:19:44;99282.97;;;19.43;42.35
75895;BME280;64573;50.328;15.014;2024-02-14T12:22:10;99269.50;;;18.70;43.59
75895;BME280;64573;50.328;15.014;2024-02-14T12:24:44;99272.84;;;19.20;43.36
75895;BME280;64573;50.328;15.014;2024-02-14T12:27:09;99266.59;;;19.62;43.31
75895;BME280;64573;50.328;15.014;2024-02-14T12:29:35;99268.66;;;19.78;42.94
75895;BME280;64573;50.328;15.014;2024-02-14T12:32:07;99266.78;;;19.78;42.30
75895;BME280;64573;50.328;15.014;2024-02-14T12:34:33;99264.44;;;20.05;41.48
75895;BME280;64573;50.328;15.014;2024-02-14T12:36:58;99269.78;;;20.35;41.32
75895;BME280;64573;50.328;15.014;2024-02-14T12:39:29;99265.63;;;20.56;40.93
75895;BME280;64573;50.328;15.014;2024-02-14T12:41:55;99260.31;;;20.50;41.42
75895;BME280;64573;50.328;15.014;2024-02-14T12:44:20;99262.88;;;21.48;40.28
75895;BME280;64573;50.328;15.014;2024-02-14T12:46:46;99254.47;;;21.67;39.38
75895;BME280;64573;50.328;15.014;2024-02-14T12:49:12;99258.47;;;21.31;39.51
75895;BME280;64573;50.328;15.014;2024-02-14T12:51:37;99262.53;;;20.41;40.62
75895;BME280;64573;50.328;15.014;2024-02-14T12:54:04;99268.50;;;20.50;40.76
75895;BME280;64573;50.328;15.014;2024-02-14T12:56:30;99266.00;;;21.00;40.06
75895;BME280;64573;50.328;15.014;2024-02-14T12:58:56;99262.78;;;21.43;39.61
75895;BME280;64573;50.328;15.014;2024-02-14T13:01:21;99266.78;;;21.69;39.31
75895;BME280;64573;50.328;15.014;2024-02-14T13:03:47;99263.59;;;22.40;38.43
75895;BME280;64573;50.328;15.014;2024-02-14T13:06:12;99258.69;;;20.89;39.73
75895;BME280;64573;50.328;15.014;2024-02-14T13:08:39;99257.72;;;21.35;39.93
75895;BME280;64573;50.328;15.014;2024-02-14T13:11:05;99252.81;;;21.66;39.08
75895;BME280;64573;50.328;15.014;2024-02-14T13:13:30;99249.50;;;21.07;40.23
75895;BME280;64573;50.328;15.014;2024-02-14T13:15:56;99247.91;;;21.23;40.49
75895;BME280;64573;50.328;15.014;2024-02-14T13:18:21;99250.56;;;21.06;39.69
75895;BME280;64573;50.328;15.014;2024-02-14T13:20:47;99243.31;;;21.52;39.75
75895;BME280;64573;50.328;15.014;2024-02-14T13:23:12;99240.78;;;20.93;40.03